Time;durP1;ratioP1;P1;durP2;ratioP2;P2;SDS_P1;SDS_P2;PMS_P1;PMS_P2;Temp;Humidity;BMP_temperature;BMP_pressure;BME280_temperature;BME280_humidity;BME280_pressure;Samples;Min_cycle;Max_cycle;Signal;HPM_P1;HPM_P2
2023/09/16 00:01:28;;;;;;;9.80;6.15;;;14.70;99.90;;;;;;5052838;28;20352;-71
2023/09/16 00:03:54;;;;;;;9.18;5.93;;;14.60;99.90;;;;;;5054846;28;20563;-70
2023/09/16 00:06:23;;;;;;;9.30;6.15;;;14.70;99.90;;;;;;5048558;28;20045;-71
2023/09/16 00:08:53;;;;;;;9.68;5.78;;;14.70;99.90;;;;;;5042360;28;20066;-71
2023/09/16 00:11:21;;;;;;;8.05;5.22;;;14.70;99.90;;;;;;5047090;28;20065;-70
2023/09/16 00:13:46;;;;;;;10.20;5.90;;;14.70;99.90;;;;;;5040846;28;20044;-70
2023/09/16 00:16:15;;;;;;;9.90;5.90;;;14.70;99.90;;;;;;5065101;28;20037;-71
2023/09/16 00:18:41;;;;;;;8.48;5.35;;;14.60;99.90;;;;;;5059753;28;20041;-70
2023/09/16 00:21:07;;;;;;;11.07;7.00;;;14.50;99.90;;;;;;5048814;28;20036;-71
2023/09/16 00:23:33;;;;;;;11.45;6.28;;;14.50;99.90;;;;;;5031692;28;20387;-71
2023/09/16 00:25:58;;;;;;;10.35;5.82;;;14.50;99.90;;;;;;5053097;28;20047;-71
2023/09/16 00:28:27;;;;;;;9.80;6.30;;;14.50;99.90;;;;;;5038375;28;20102;-71
2023/09/16 00:30:53;;;;;;;9.93;6.40;;;14.50;99.90;;;;;;5050144;28;20043;-71
2023/09/16 00:33:19;;;;;;;11.15;5.97;;;14.50;99.90;;;;;;5029336;28;20036;-70
2023/09/16 00:35:47;;;;;;;11.05;6.60;;;14.50;99.90;;;;;;5045184;28;20119;-71
2023/09/16 00:38:15;;;;;;;10.45;7.07;;;14.50;99.90;;;;;;5038900;28;20048;-71
2023/09/16 00:40:41;;;;;;;10.55;7.25;;;14.50;99.90;;;;;;5024572;28;20039;-70
2023/09/16 00:43:10;;;;;;;10.27;6.80;;;14.40;99.90;;;;;;5045178;28;20475;-70
2023/09/16 00:45:38;;;;;;;12.80;7.25;;;14.40;99.90;;;;;;5050315;28;20044;-70
2023/09/16 00:48:04;;;;;;;12.95;7.63;;;14.40;99.90;;;;;;5051393;28;20064;-71
2023/09/16 00:50:30;;;;;;;11.27;7.03;;;14.40;99.90;;;;;;5046073;28;20037;-71
2023/09/16 00:53:00;;;;;;;11.57;6.25;;;14.40;99.90;;;;;;5050263;28;20076;-70
2023/09/16 00:55:28;;;;;;;10.10;6.38;;;14.40;99.90;;;;;;5047436;28;20040;-70
2023/09/16 00:57:55;;;;;;;10.38;6.57;;;14.30;99.90;;;;;;5036216;28;20040;-71
2023/09/16 01:00:26;;;;;;;11.18;6.75;;;14.30;99.90;;;;;;5050813;28;20120;-70
2023/09/16 01:02:54;;;;;;;13.27;6.32;;;14.30;99.90;;;;;;5052487;28;20044;-71
2023/09/16 01:05:22;;;;;;;18.17;8.95;;;14.30;99.90;;;;;;5052165;28;20050;-71
2023/09/16 01:07:49;;;;;;;11.80;7.40;;;14.30;99.90;;;;;;5046431;28;20048;-70
2023/09/16 01:10:18;;;;;;;11.80;7.93;;;14.20;99.90;;;;;;5044707;28;20036;-70
2023/09/16 01:12:45;;;;;;;10.63;7.38;;;14.20;99.90;;;;;;5046152;28;20471;-70
2023/09/16 01:15:16;;;;;;;14.57;8.15;;;14.20;99.90;;;;;;5043252;28;20040;-70
2023/09/16 01:18:05;;;;;;;13.95;7.90;;;14.20;99.90;;;;;;5029125;28;20044;-70
2023/09/16 01:20:32;;;;;;;13.02;7.72;;;14.20;99.90;;;;;;5045320;28;20577;-70
2023/09/16 01:23:00;;;;;;;13.88;8.15;;;14.20;99.90;;;;;;5046799;28;20135;-70
2023/09/16 01:25:29;;;;;;;13.88;7.80;;;14.20;99.90;;;;;;5030492;28;20056;-70
2023/09/16 01:27:55;;;;;;;11.35;7.20;;;14.20;99.90;;;;;;5065384;28;20064;-70
2023/09/16 01:30:23;;;;;;;13.43;8.73;;;14.20;99.90;;;;;;5054351;28;20036;-70
2023/09/16 01:33:28;;;;;;;13.40;8.73;;;14.20;99.90;;;;;;5046169;28;20063;-70
2023/09/16 01:36:07;;;;;;;12.45;8.48;;;14.20;99.90;;;;;;5047897;28;20044;-70
2023/09/16 01:38:39;;;;;;;12.50;8.43;;;14.20;99.90;;;;;;5041818;28;20056;-71
2023/09/16 01:41:07;;;;;;;14.18;8.38;;;14.20;99.90;;;;;;5054114;28;20052;-71
2023/09/16 01:43:33;;;;;;;12.77;8.15;;;14.20;99.90;;;;;;5029537;28;20045;-71
2023/09/16 01:45:59;;;;;;;12.77;8.25;;;14.10;99.90;;;;;;5067379;28;20044;-71
2023/09/16 01:48:25;;;;;;;14.80;8.23;;;14.10;99.90;;;;;;5047808;28;20056;-71
2023/09/16 01:50:53;;;;;;;12.55;8.45;;;14.10;99.90;;;;;;5032888;28;20355;-71
2023/09/16 01:53:19;;;;;;;14.35;8.50;;;14.10;99.90;;;;;;5040841;28;20487;-71
2023/09/16 01:55:44;;;;;;;16.25;8.77;;;14.10;99.90;;;;;;5049686;28;20044;-71
2023/09/16 01:58:10;;;;;;;15.07;8.93;;;14.10;99.90;;;;;;5048324;28;20048;-71
2023/09/16 02:00:41;;;;;;;14.20;8.57;;;14.10;99.90;;;;;;5048181;28;20408;-71
2023/09/16 02:03:10;;;;;;;16.92;9.43;;;14.10;99.90;;;;;;5049438;28;20068;-71
2023/09/16 02:05:35;;;;;;;12.77;8.63;;;14.10;99.90;;;;;;5044785;28;20470;-71
2023/09/16 02:08:03;;;;;;;14.43;8.85;;;14.10;99.90;;;;;;5048628;28;20133;-71
2023/09/16 02:10:29;;;;;;;12.77;8.77;;;14.00;99.90;;;;;;5057957;28;20744;-71
2023/09/16 02:12:55;;;;;;;12.82;8.80;;;14.00;99.90;;;;;;5049955;28;20043;-71
2023/09/16 02:15:20;;;;;;;15.20;9.90;;;14.00;99.90;;;;;;5048416;28;20518;-71
2023/09/16 02:17:46;;;;;;;14.88;8.98;;;14.00;99.90;;;;;;5043451;28;20088;-71
2023/09/16 02:20:14;;;;;;;17.35;9.55;;;14.00;99.90;;;;;;5029987;28;20468;-71
2023/09/16 02:22:41;;;;;;;15.25;9.68;;;14.00;99.90;;;;;;5042473;28;20047;-71
2023/09/16 02:25:07;;;;;;;12.10;8.98;;;13.90;99.90;;;;;;5042237;28;20053;-71
2023/09/16 02:27:33;;;;;;;11.38;8.43;;;13.90;99.90;;;;;;5046213;28;20039;-71
2023/09/16 02:30:01;;;;;;;13.23;8.48;;;13.90;99.90;;;;;;5048291;28;20063;-71
2023/09/16 02:32:26;;;;;;;15.05;8.95;;;13.90;99.90;;;;;;5065900;28;20044;-70
2023/09/16 02:34:52;;;;;;;14.38;8.88;;;13.90;99.90;;;;;;5041433;28;20404;-70
2023/09/16 02:37:18;;;;;;;12.30;7.97;;;13.90;99.90;;;;;;5046579;28;20052;-70
2023/09/16 02:39:43;;;;;;;14.73;9.15;;;13.80;99.90;;;;;;5038547;28;20492;-70
2023/09/16 02:42:09;;;;;;;11.50;7.60;;;13.80;99.90;;;;;;5048674;28;20120;-70
2023/09/16 02:44:35;;;;;;;15.00;9.55;;;13.80;99.90;;;;;;5049072;28;20288;-70
2023/09/16 02:47:00;;;;;;;13.98;8.90;;;13.80;99.90;;;;;;5046365;28;20403;-71
2023/09/16 02:49:29;;;;;;;13.37;8.60;;;13.80;99.90;;;;;;5046131;28;20032;-70
2023/09/16 02:51:57;;;;;;;12.70;8.27;;;13.70;99.90;;;;;;5044576;28;20777;-70
2023/09/16 02:54:23;;;;;;;14.68;8.90;;;13.70;99.90;;;;;;5030371;28;20042;-70
2023/09/16 02:56:48;;;;;;;12.02;8.07;;;13.70;99.90;;;;;;5066556;28;20048;-70
2023/09/16 02:59:20;;;;;;;14.30;8.57;;;13.70;99.90;;;;;;5027620;28;20346;-70
2023/09/16 03:01:46;;;;;;;15.20;8.63;;;13.70;99.90;;;;;;5042604;28;20381;-70
2023/09/16 03:04:11;;;;;;;14.40;8.90;;;13.60;99.90;;;;;;5027584;28;20036;-70
2023/09/16 03:06:37;;;;;;;14.52;8.68;;;13.60;99.90;;;;;;5044496;28;20040;-70
2023/09/16 03:09:03;;;;;;;14.90;8.80;;;13.60;99.90;;;;;;5051809;28;20048;-69
2023/09/16 03:11:29;;;;;;;12.70;8.57;;;13.60;99.90;;;;;;5050235;28;20400;-68
2023/09/16 03:13:55;;;;;;;13.93;9.10;;;13.50;99.90;;;;;;5030683;28;20036;-69
2023/09/16 03:16:24;;;;;;;17.08;10.07;;;13.60;99.90;;;;;;5052182;28;20101;-69
2023/09/16 03:18:51;;;;;;;14.18;9.02;;;13.60;99.90;;;;;;5048544;28;20147;-70
2023/09/16 03:21:22;;;;;;;14.05;9.48;;;13.50;99.90;;;;;;5072788;28;20124;-70
2023/09/16 03:23:48;;;;;;;15.95;9.65;;;13.50;99.90;;;;;;5030989;28;20048;-70
2023/09/16 03:26:15;;;;;;;14.35;9.60;;;13.50;99.90;;;;;;5053328;28;20101;-69
2023/09/16 03:28:45;;;;;;;15.73;9.82;;;13.50;99.90;;;;;;5038152;28;20044;-70
2023/09/16 03:31:11;;;;;;;13.75;9.45;;;13.50;99.90;;;;;;5041866;28;20086;-70
2023/09/16 03:33:36;;;;;;;;;;;13.50;99.90;;;;;;5065287;28;20458;-69
2023/09/16 03:36:03;;;;;;;17.23;10.02;;;13.50;99.90;;;;;;5065617;28;19962;-70
2023/09/16 03:38:32;;;;;;;;;;;13.50;99.90;;;;;;5046623;28;20072;-70
2023/09/16 03:41:00;;;;;;;13.77;9.57;;;13.40;99.90;;;;;;5050235;28;19916;-70
2023/09/16 03:43:27;;;;;;;15.50;9.77;;;13.40;99.90;;;;;;5029598;28;20032;-70
2023/09/16 03:45:53;;;;;;;13.63;9.05;;;13.40;99.90;;;;;;5050384;28;20052;-70
2023/09/16 03:48:19;;;;;;;18.67;10.20;;;13.40;99.90;;;;;;5051656;28;20089;-69
2023/09/16 03:50:46;;;;;;;14.48;9.57;;;13.40;99.90;;;;;;5033731;28;20048;-70
2023/09/16 03:53:12;;;;;;;12.05;8.80;;;13.40;99.90;;;;;;5029831;28;20311;-69
2023/09/16 03:55:43;;;;;;;14.68;9.27;;;13.40;99.90;;;;;;5049477;28;20049;-70
2023/09/16 03:58:11;;;;;;;14.95;10.07;;;13.40;99.90;;;;;;5050128;28;20048;-69
2023/09/16 04:00:37;;;;;;;13.82;8.75;;;13.30;99.90;;;;;;5058001;28;20036;-70
2023/09/16 04:03:03;;;;;;;15.27;10.40;;;13.30;99.90;;;;;;5048458;28;20561;-70
2023/09/16 04:05:28;;;;;;;15.05;9.65;;;13.30;99.90;;;;;;5037005;28;20524;-70
2023/09/16 04:07:54;;;;;;;17.43;9.20;;;13.30;99.90;;;;;;5065413;28;20656;-70
2023/09/16 04:10:22;;;;;;;15.75;10.25;;;13.30;99.90;;;;;;5054475;28;20609;-70
2023/09/16 04:12:48;;;;;;;14.35;9.27;;;13.30;99.90;;;;;;5062127;28;20040;-70
2023/09/16 04:15:13;;;;;;;13.82;8.90;;;13.20;99.90;;;;;;5032059;28;20416;-70
2023/09/16 04:17:39;;;;;;;13.63;9.23;;;13.20;99.90;;;;;;5029513;28;20047;-70
2023/09/16 04:20:08;;;;;;;13.38;9.35;;;13.20;99.90;;;;;;5066939;28;20044;-69
2023/09/16 04:22:34;;;;;;;15.68;9.57;;;13.20;99.90;;;;;;5049250;28;20040;-70
2023/09/16 04:24:59;;;;;;;18.27;10.05;;;13.20;99.90;;;;;;5050408;28;20493;-70
2023/09/16 04:27:28;;;;;;;15.52;9.25;;;13.20;99.90;;;;;;5044876;28;20052;-70
2023/09/16 04:29:54;;;;;;;14.50;9.52;;;13.10;99.90;;;;;;5063040;28;20401;-69
2023/09/16 04:32:22;;;;;;;16.30;10.45;;;13.10;99.90;;;;;;5046360;28;20035;-70
2023/09/16 04:34:57;;;;;;;12.18;8.85;;;13.10;99.90;;;;;;5048713;28;20411;-69
2023/09/16 04:37:23;;;;;;;12.98;9.32;;;13.10;99.90;;;;;;5044398;28;20504;-70
2023/09/16 04:39:48;;;;;;;16.23;9.80;;;13.10;99.90;;;;;;5070754;28;20111;-69
2023/09/16 04:42:14;;;;;;;14.00;9.57;;;13.00;99.90;;;;;;5048531;28;20051;-70
2023/09/16 04:44:40;;;;;;;14.37;9.37;;;13.00;99.90;;;;;;5045327;28;20476;-70
2023/09/16 04:47:10;;;;;;;15.02;9.50;;;12.90;99.90;;;;;;5045472;28;20296;-69
2023/09/16 04:49:39;;;;;;;12.75;9.15;;;12.90;99.90;;;;;;5047381;28;20110;-69
2023/09/16 04:52:05;;;;;;;16.52;8.88;;;13.00;99.90;;;;;;5049600;28;20051;-69
2023/09/16 04:54:35;;;;;;;13.70;9.05;;;12.90;99.90;;;;;;5045527;28;20045;-69
2023/09/16 04:57:02;;;;;;;15.45;9.45;;;12.90;99.90;;;;;;5053663;28;20542;-69
2023/09/16 04:59:31;;;;;;;15.32;9.68;;;12.90;99.90;;;;;;5047351;28;20048;-69
2023/09/16 05:01:56;;;;;;;14.52;9.52;;;12.90;99.90;;;;;;5048326;28;20048;-69
2023/09/16 05:04:24;;;;;;;15.05;9.02;;;12.90;99.90;;;;;;5051317;28;20045;-69
2023/09/16 05:06:50;;;;;;;14.13;8.43;;;12.90;99.90;;;;;;5067916;28;20049;-69
2023/09/16 05:09:16;;;;;;;14.03;8.67;;;12.80;99.90;;;;;;5052902;28;20040;-69
2023/09/16 05:11:43;;;;;;;13.82;9.32;;;12.80;99.90;;;;;;5052815;28;20041;-69
2023/09/16 05:14:09;;;;;;;13.43;8.77;;;12.80;99.90;;;;;;5068510;28;20535;-69
2023/09/16 05:16:35;;;;;;;14.73;9.35;;;12.70;99.90;;;;;;5032456;28;20044;-69
2023/09/16 05:19:06;;;;;;;12.82;8.85;;;12.70;99.90;;;;;;5050420;28;20048;-69
2023/09/16 05:21:31;;;;;;;12.90;8.98;;;12.70;99.90;;;;;;5031829;28;20404;-69
2023/09/16 05:23:57;;;;;;;13.30;9.17;;;12.80;99.90;;;;;;5077449;28;20055;-69
2023/09/16 05:26:22;;;;;;;13.57;8.87;;;12.70;99.90;;;;;;5068323;28;20277;-69
2023/09/16 05:28:48;;;;;;;13.23;9.05;;;12.80;99.90;;;;;;5038357;28;20359;-69
2023/09/16 05:31:14;;;;;;;14.93;8.55;;;12.80;99.90;;;;;;5055437;28;20521;-69
2023/09/16 05:33:42;;;;;;;12.68;8.90;;;12.70;99.90;;;;;;5052200;28;20032;-69
2023/09/16 05:36:08;;;;;;;14.27;8.87;;;12.70;99.90;;;;;;5067862;28;20044;-69
2023/09/16 05:38:33;;;;;;;13.53;9.00;;;12.60;99.90;;;;;;5037385;28;20340;-69
2023/09/16 05:40:59;;;;;;;11.95;8.48;;;12.60;99.90;;;;;;5069972;28;20125;-69
2023/09/16 05:43:25;;;;;;;13.02;9.25;;;12.70;99.90;;;;;;5048192;28;20044;-69
2023/09/16 05:45:54;;;;;;;14.38;9.25;;;12.70;99.90;;;;;;5051040;28;20071;-69
2023/09/16 05:48:19;;;;;;;14.63;9.73;;;12.70;99.90;;;;;;5047139;28;20055;-69
2023/09/16 05:50:45;;;;;;;14.82;8.50;;;12.70;99.90;;;;;;5050493;28;20037;-69
2023/09/16 05:53:11;;;;;;;12.90;8.67;;;12.80;99.90;;;;;;5053677;28;20134;-69
2023/09/16 05:55:39;;;;;;;14.32;9.85;;;12.80;99.90;;;;;;5033905;28;20461;-69
2023/09/16 05:58:06;;;;;;;12.13;8.73;;;12.80;99.90;;;;;;5035024;28;20098;-69
2023/09/16 06:00:32;;;;;;;17.48;10.73;;;12.80;99.90;;;;;;5049918;28;20057;-69
2023/09/16 06:02:58;;;;;;;13.93;9.73;;;12.90;99.90;;;;;;5048802;28;20102;-70
2023/09/16 06:05:24;;;;;;;17.10;10.40;;;13.00;99.90;;;;;;5067769;28;20045;-69
2023/09/16 06:07:49;;;;;;;13.20;9.43;;;13.00;99.90;;;;;;5054316;28;20492;-69
2023/09/16 06:10:15;;;;;;;15.77;10.43;;;13.00;99.90;;;;;;5050463;28;20428;-70
2023/09/16 06:12:46;;;;;;;16.00;10.68;;;13.10;99.90;;;;;;5068063;28;20039;-69
2023/09/16 06:15:11;;;;;;;15.05;9.63;;;13.10;99.90;;;;;;5054280;28;20052;-70
2023/09/16 06:17:37;;;;;;;15.07;9.60;;;13.20;99.90;;;;;;5049166;28;20036;-70
2023/09/16 06:20:03;;;;;;;14.40;10.37;;;13.20;99.90;;;;;;5073183;28;20749;-69
2023/09/16 06:22:29;;;;;;;15.93;10.68;;;13.30;99.90;;;;;;5067245;28;20851;-70
2023/09/16 06:24:57;;;;;;;13.60;10.60;;;13.30;99.90;;;;;;5035997;28;20136;-70
2023/09/16 06:27:23;;;;;;;17.05;10.48;;;13.40;99.90;;;;;;5069921;28;20036;-69
2023/09/16 06:29:52;;;;;;;14.10;9.80;;;13.50;99.90;;;;;;5074784;28;20480;-70
2023/09/16 06:32:19;;;;;;;14.82;9.98;;;13.50;99.90;;;;;;5045680;28;20749;-70
2023/09/16 06:34:44;;;;;;;14.40;10.35;;;13.60;99.90;;;;;;5049657;28;20040;-70
2023/09/16 06:37:10;;;;;;;14.98;10.40;;;13.60;99.90;;;;;;5052869;28;20104;-70
2023/09/16 06:39:40;;;;;;;16.07;11.00;;;13.70;99.90;;;;;;5031982;28;20056;-70
2023/09/16 06:42:05;;;;;;;16.80;9.77;;;13.80;99.90;;;;;;5048005;28;20293;-70
2023/09/16 06:44:31;;;;;;;16.33;9.68;;;13.90;99.90;;;;;;5045372;28;20167;-70
2023/09/16 06:47:02;;;;;;;16.88;10.45;;;13.90;99.90;;;;;;5051595;28;20047;-70
2023/09/16 06:49:28;;;;;;;15.15;10.25;;;14.00;99.90;;;;;;5044563;28;20511;-70
2023/09/16 06:51:54;;;;;;;14.68;10.23;;;14.10;99.90;;;;;;5053027;28;20041;-70
2023/09/16 06:54:22;;;;;;;15.40;10.50;;;14.20;99.90;;;;;;5054237;28;20036;-70
2023/09/16 06:56:53;;;;;;;16.17;11.27;;;14.20;99.90;;;;;;5043359;28;20040;-70
2023/09/16 06:59:19;;;;;;;16.42;10.20;;;14.30;99.90;;;;;;5065419;28;20166;-70
2023/09/16 07:01:44;;;;;;;16.55;10.85;;;14.40;99.90;;;;;;5045748;28;20119;-69
2023/09/16 07:04:10;;;;;;;16.23;10.53;;;14.50;99.90;;;;;;5070456;28;20666;-70
2023/09/16 07:06:36;;;;;;;14.93;10.17;;;14.50;99.90;;;;;;5034280;28;20033;-70
2023/09/16 07:09:01;;;;;;;14.45;10.07;;;14.60;99.90;;;;;;5069502;28;20835;-70
2023/09/16 07:11:33;;;;;;;12.90;9.97;;;14.60;99.90;;;;;;5051062;28;20047;-70
2023/09/16 07:14:03;;;;;;;19.80;10.57;;;14.70;99.90;;;;;;5048550;28;20816;-70
2023/09/16 07:16:40;;;;;;;15.63;10.27;;;14.80;99.90;;;;;;5045478;28;20033;-70
2023/09/16 07:19:06;;;;;;;14.02;9.52;;;14.90;99.90;;;;;;5029993;28;20562;-70
2023/09/16 07:21:31;;;;;;;14.02;10.18;;;14.90;99.90;;;;;;5033602;28;20045;-69
2023/09/16 07:24:00;;;;;;;14.15;9.88;;;15.00;99.90;;;;;;5049494;28;20516;-70
2023/09/16 07:26:27;;;;;;;15.23;9.98;;;15.10;99.90;;;;;;5034712;28;20367;-70
2023/09/16 07:28:56;;;;;;;15.48;9.40;;;15.10;99.90;;;;;;5045761;28;20170;-70
2023/09/16 07:31:21;;;;;;;13.27;9.50;;;15.20;99.90;;;;;;5050919;28;20115;-70
2023/09/16 07:33:48;;;;;;;14.68;9.60;;;15.30;99.90;;;;;;5033274;28;20174;-70
2023/09/16 07:36:14;;;;;;;14.48;9.32;;;15.40;99.90;;;;;;5044851;28;20051;-69
2023/09/16 07:38:39;;;;;;;14.13;9.15;;;15.50;99.90;;;;;;5065143;28;20040;-70
2023/09/16 07:41:10;;;;;;;15.68;9.20;;;15.50;99.90;;;;;;5034089;28;20086;-70
2023/09/16 07:43:36;;;;;;;16.90;10.55;;;15.60;99.90;;;;;;5046383;28;20036;-70
2023/09/16 07:46:08;;;;;;;16.83;10.15;;;15.70;99.90;;;;;;5033116;28;20068;-70
2023/09/16 07:48:33;;;;;;;15.75;9.57;;;15.80;99.90;;;;;;5050776;28;20121;-70
2023/09/16 07:51:01;;;;;;;15.70;9.07;;;15.90;99.90;;;;;;5050598;28;20083;-70
2023/09/16 07:53:27;;;;;;;14.02;9.27;;;16.00;99.90;;;;;;5037818;28;20036;-70
2023/09/16 07:55:56;;;;;;;14.57;9.52;;;16.00;99.90;;;;;;5068628;28;20046;-70
2023/09/16 07:58:21;;;;;;;12.93;9.27;;;16.10;99.90;;;;;;5037227;28;20067;-70
2023/09/16 08:00:48;;;;;;;13.30;9.98;;;16.20;99.90;;;;;;5063564;28;20047;-70
2023/09/16 08:03:17;;;;;;;16.05;9.25;;;16.30;99.90;;;;;;5029934;28;20697;-70
2023/09/16 08:05:43;;;;;;;14.75;8.90;;;16.40;99.90;;;;;;5047631;28;20124;-70
2023/09/16 08:08:09;;;;;;;13.48;8.77;;;16.40;99.90;;;;;;5032104;28;20098;-70
2023/09/16 08:10:35;;;;;;;12.60;8.75;;;16.50;99.90;;;;;;5052733;28;20040;-70
2023/09/16 08:13:00;;;;;;;15.10;9.15;;;16.60;99.90;;;;;;5075648;28;20678;-70
2023/09/16 08:15:26;;;;;;;19.75;9.57;;;16.70;99.90;;;;;;5050529;28;20040;-70
2023/09/16 08:17:52;;;;;;;13.68;9.07;;;16.80;99.90;;;;;;5046318;28;20048;-70
2023/09/16 08:20:20;;;;;;;12.55;7.95;;;16.90;99.90;;;;;;5046194;28;20040;-70
2023/09/16 08:22:46;;;;;;;12.52;8.20;;;17.00;99.90;;;;;;5059102;28;20048;-70
2023/09/16 08:25:12;;;;;;;10.93;7.47;;;17.10;99.90;;;;;;5047912;28;20036;-70
2023/09/16 08:27:38;;;;;;;15.77;9.43;;;17.20;99.90;;;;;;5029983;28;20050;-71
2023/09/16 08:30:07;;;;;;;15.98;8.20;;;17.30;99.90;;;;;;5049581;28;20032;-70
2023/09/16 08:32:36;;;;;;;13.35;8.55;;;17.40;99.90;;;;;;5050777;28;20037;-70
2023/09/16 08:35:01;;;;;;;13.60;8.15;;;17.50;99.90;;;;;;5051305;28;20576;-70
2023/09/16 08:37:27;;;;;;;10.68;7.43;;;17.60;99.90;;;;;;5051495;28;20036;-70
2023/09/16 08:39:52;;;;;;;12.90;7.47;;;17.80;99.90;;;;;;5033716;28;20044;-70
2023/09/16 08:42:43;;;;;;;9.73;6.88;;;17.90;99.90;;;;;;5051502;28;20669;-70
2023/09/16 08:45:20;;;;;;;10.18;6.75;;;18.00;99.90;;;;;;5038000;28;20113;-70
2023/09/16 08:47:56;;;;;;;10.27;7.03;;;18.10;99.90;;;;;;5049392;28;20059;-70
2023/09/16 08:50:24;;;;;;;11.83;6.43;;;18.20;99.90;;;;;;5047839;28;20032;-70
2023/09/16 08:52:54;;;;;;;11.90;6.80;;;18.30;99.90;;;;;;5036147;28;20057;-70
2023/09/16 08:55:21;;;;;;;9.63;5.40;;;18.40;99.90;;;;;;5050954;28;20056;-70
2023/09/16 08:57:52;;;;;;;13.57;5.90;;;18.50;99.90;;;;;;5048825;28;20094;-70
2023/09/16 09:00:19;;;;;;;10.45;6.35;;;18.70;99.90;;;;;;5031831;28;20483;-70
2023/09/16 09:02:45;;;;;;;9.15;5.95;;;18.70;99.90;;;;;;5046747;28;20067;-70
2023/09/16 09:05:12;;;;;;;12.73;6.60;;;18.80;99.90;;;;;;5069014;28;20044;-70
2023/09/16 09:07:42;;;;;;;11.70;6.50;;;19.00;99.90;;;;;;5067295;28;20064;-70
2023/09/16 09:10:12;;;;;;;8.52;5.50;;;19.10;99.90;;;;;;5049686;28;20044;-70
2023/09/16 09:12:45;;;;;;;8.65;5.88;;;19.20;99.90;;;;;;5050293;28;20059;-70
2023/09/16 09:15:13;;;;;;;8.00;5.10;;;19.30;99.90;;;;;;5053336;28;20051;-70
2023/09/16 09:17:52;;;;;;;10.18;5.68;;;19.30;99.90;;;;;;5052339;28;20048;-70
2023/09/16 09:20:19;;;;;;;7.45;5.47;;;19.50;99.90;;;;;;5025922;28;20036;-70
2023/09/16 09:22:48;;;;;;;7.82;5.00;;;19.60;99.90;;;;;;5036623;28;20483;-70
2023/09/16 09:25:14;;;;;;;7.78;4.35;;;19.70;99.90;;;;;;5032346;28;20082;-70
2023/09/16 09:27:46;;;;;;;7.75;4.68;;;19.80;99.90;;;;;;5051935;28;20086;-70
2023/09/16 09:30:12;;;;;;;9.48;5.43;;;20.00;99.90;;;;;;5044304;28;20135;-70
2023/09/16 09:32:43;;;;;;;7.53;4.88;;;20.00;99.90;;;;;;5050540;28;20116;-70
2023/09/16 09:35:11;;;;;;;10.02;4.85;;;20.20;99.90;;;;;;5047553;28;20055;-70
2023/09/16 09:37:38;;;;;;;7.35;4.45;;;20.20;99.90;;;;;;5044286;28;20470;-69
2023/09/16 09:40:12;;;;;;;6.13;3.78;;;20.40;99.90;;;;;;5063154;28;20048;-70
2023/09/16 09:42:46;;;;;;;5.57;3.25;;;20.50;99.90;;;;;;5055361;28;20033;-70
2023/09/16 09:45:18;;;;;;;6.65;3.60;;;20.60;99.90;;;;;;5045375;28;20040;-70
2023/09/16 09:47:50;;;;;;;5.97;3.83;;;20.70;99.90;;;;;;5065615;28;20466;-70
2023/09/16 09:50:19;;;;;;;5.88;3.13;;;20.80;99.90;;;;;;5044721;28;20127;-70
2023/09/16 09:52:46;;;;;;;7.60;3.15;;;20.90;99.90;;;;;;5033406;28;20431;-70
2023/09/16 09:55:16;;;;;;;4.55;2.85;;;21.00;99.90;;;;;;5064936;28;20044;-70
2023/09/16 09:57:45;;;;;;;5.68;3.30;;;21.10;99.90;;;;;;5032788;28;20048;-70
2023/09/16 10:00:17;;;;;;;5.20;2.83;;;21.20;99.90;;;;;;5047385;28;20201;-69
2023/09/16 10:02:44;;;;;;;6.43;3.00;;;21.30;99.90;;;;;;5038640;28;20079;-70
2023/09/16 10:05:25;;;;;;;4.82;2.97;;;21.40;99.90;;;;;;5051624;28;20051;-69
2023/09/16 10:07:53;;;;;;;6.88;2.67;;;21.50;99.90;;;;;;5051141;28;20049;-70
2023/09/16 10:10:23;;;;;;;;;;;21.50;99.90;;;;;;5032201;28;20495;-70
2023/09/16 10:12:54;;;;;;;4.53;2.90;;;21.60;99.90;;;;;;5062043;28;19920;-71
2023/09/16 10:15:28;;;;;;;5.22;2.80;;;21.70;99.90;;;;;;5051795;28;20036;-70
2023/09/16 10:17:56;;;;;;;5.28;2.80;;;21.80;99.90;;;;;;5049146;28;20056;-70
2023/09/16 10:20:22;;;;;;;3.88;2.60;;;21.90;99.90;;;;;;5067827;28;20320;-69
2023/09/16 10:22:48;;;;;;;;;;;21.90;99.90;;;;;;5034615;28;20318;-69
2023/09/16 10:25:16;;;;;;;5.43;2.33;;;22.00;99.90;;;;;;5031506;28;19955;-70
2023/09/16 10:28:03;;;;;;;5.18;2.58;;;22.00;99.90;;;;;;5034543;28;20521;-69
2023/09/16 10:30:36;;;;;;;5.10;2.85;;;22.20;99.90;;;;;;5043041;28;20040;-70
2023/09/16 10:33:06;;;;;;;4.90;2.20;;;22.20;99.90;;;;;;5066785;28;20588;-69
2023/09/16 10:35:38;;;;;;;4.15;2.47;;;22.30;99.90;;;;;;5051075;28;20414;-69
2023/09/16 10:38:05;;;;;;;6.00;2.92;;;22.40;99.90;;;;;;5048759;28;20049;-69
2023/09/16 10:40:32;;;;;;;4.47;2.63;;;22.40;99.90;;;;;;5050034;28;20060;-69
2023/09/16 10:42:58;;;;;;;6.25;3.00;;;22.50;99.90;;;;;;5052885;28;20071;-69
2023/09/16 10:45:25;;;;;;;5.50;2.90;;;22.60;99.90;;;;;;5047616;28;20113;-70
2023/09/16 10:47:53;;;;;;;4.50;2.67;;;22.70;99.90;;;;;;5048565;28;20075;-70
2023/09/16 10:50:24;;;;;;;6.72;2.80;;;22.80;99.90;;;;;;5039105;28;20041;-70
2023/09/16 10:53:10;;;;;;;4.60;2.53;;;22.90;99.90;;;;;;5031836;28;20044;-70
2023/09/16 10:55:54;;;;;;;4.05;2.67;;;23.00;99.90;;;;;;5043560;28;20040;-70
2023/09/16 10:58:36;;;;;;;4.07;2.20;;;23.00;99.90;;;;;;5051892;28;21363;-70
2023/09/16 11:01:08;;;;;;;4.50;1.80;;;23.10;99.90;;;;;;5042365;28;20516;-70
2023/09/16 11:03:37;;;;;;;6.03;2.53;;;23.10;99.90;;;;;;5033833;28;20543;-70
2023/09/16 11:06:03;;;;;;;4.57;2.15;;;23.20;99.90;;;;;;5062666;28;20045;-70
2023/09/16 11:08:28;;;;;;;;;;;23.20;99.90;;;;;;5068378;28;20075;-70
2023/09/16 11:10:56;;;;;;;5.03;2.55;;;23.30;99.90;;;;;;5040475;28;20181;-70
2023/09/16 11:13:26;;;;;;;8.95;3.45;;;23.30;99.90;;;;;;5033783;28;22258;-70
2023/09/16 11:15:51;;;;;;;4.20;2.28;;;23.40;99.90;;;;;;5042850;28;20052;-70
2023/09/16 11:18:18;;;;;;;;;;;23.40;99.90;;;;;;5031388;28;20090;-70
2023/09/16 11:20:46;;;;;;;3.10;1.77;;;23.50;99.90;;;;;;5052471;28;20334;-70
2023/09/16 11:23:18;;;;;;;3.47;1.88;;;23.60;99.90;;;;;;5039942;28;20048;-70
2023/09/16 11:25:44;;;;;;;4.00;2.00;;;23.60;99.90;;;;;;5047357;28;20064;-70
2023/09/16 11:28:14;;;;;;;4.28;1.98;;;23.80;99.90;;;;;;5045737;28;20075;-69
2023/09/16 11:30:52;;;;;;;3.55;2.05;;;23.90;99.90;;;;;;5056718;28;20040;-69
2023/09/16 11:33:27;;;;;;;5.38;1.98;;;24.00;99.90;;;;;;5026667;28;20123;-69
2023/09/16 11:36:08;;;;;;;4.15;1.80;;;24.10;99.90;;;;;;5045097;28;20047;-70
2023/09/16 11:38:34;;;;;;;3.60;2.17;;;24.20;99.90;;;;;;5059874;28;20055;-69
2023/09/16 11:41:10;;;;;;;4.15;2.30;;;24.40;99.90;;;;;;5036017;28;20048;-69
2023/09/16 11:43:39;;;;;;;3.20;1.13;;;24.50;99.90;;;;;;5039817;28;20131;-69
2023/09/16 11:46:11;;;;;;;3.55;1.55;;;24.50;99.90;;;;;;5047867;28;20416;-69
2023/09/16 11:49:08;;;;;;;3.55;1.52;;;24.40;99.90;;;;;;5041843;28;20406;-69
2023/09/16 11:51:36;;;;;;;3.53;1.65;;;24.30;99.90;;;;;;5048625;28;20100;-69
2023/09/16 11:54:03;;;;;;;4.45;1.58;;;24.30;99.90;;;;;;5033756;28;20040;-69
2023/09/16 11:56:35;;;;;;;4.20;2.10;;;24.30;99.90;;;;;;5056184;28;20123;-70
2023/09/16 11:59:03;;;;;;;3.25;1.85;;;24.30;99.90;;;;;;5047504;28;20376;-69
2023/09/16 12:01:33;;;;;;;4.22;1.80;;;24.40;99.90;;;;;;5059312;28;20571;-69
2023/09/16 12:04:00;;;;;;;4.22;1.73;;;24.50;99.90;;;;;;5031412;28;20123;-69
2023/09/16 12:06:27;;;;;;;3.38;1.60;;;24.50;99.90;;;;;;5053094;28;20173;-69
2023/09/16 12:08:55;;;;;;;2.25;1.48;;;24.60;99.90;;;;;;5028890;28;20079;-69
2023/09/16 12:11:22;;;;;;;4.38;1.30;;;24.80;99.90;;;;;;5046311;28;20565;-70
2023/09/16 12:13:48;;;;;;;2.55;1.38;;;24.70;99.90;;;;;;5029390;28;20437;-70
2023/09/16 12:16:15;;;;;;;3.60;1.83;;;24.70;99.90;;;;;;5024032;28;20037;-69
2023/09/16 12:18:42;;;;;;;2.60;1.60;;;24.50;99.90;;;;;;5026975;28;20119;-70
2023/09/16 12:21:09;;;;;;;4.65;1.42;;;24.50;99.90;;;;;;5044070;28;20045;-69
2023/09/16 12:23:34;;;;;;;2.53;1.55;;;24.40;99.90;;;;;;5067482;28;20043;-70
2023/09/16 12:26:00;;;;;;;4.35;2.00;;;24.40;99.90;;;;;;5051121;28;20044;-70
2023/09/16 12:28:27;;;;;;;3.13;1.73;;;24.40;99.90;;;;;;5024844;28;20045;-69
2023/09/16 12:30:56;;;;;;;3.53;1.17;;;24.40;99.90;;;;;;5029823;28;20036;-69
2023/09/16 12:33:22;;;;;;;5.25;1.67;;;24.40;99.90;;;;;;5029436;28;20041;-69
2023/09/16 12:35:51;;;;;;;4.78;1.95;;;24.40;99.90;;;;;;5029218;28;20048;-69
2023/09/16 12:38:20;;;;;;;3.30;1.60;;;24.30;99.90;;;;;;5033237;28;20119;-69
2023/09/16 12:40:48;;;;;;;4.38;1.73;;;24.20;99.90;;;;;;5022471;28;20124;-69
2023/09/16 12:43:14;;;;;;;3.05;1.88;;;24.20;99.90;;;;;;5046458;28;20048;-69
2023/09/16 12:45:43;;;;;;;4.40;2.22;;;24.10;99.90;;;;;;5045612;28;20675;-70